Latest Weather Observations for Central Arnhem Plateau

IDD60801

Issued at 4:31 pm CST Sunday 1 February 2015 (issued every 30 minutes, with the page automatically refreshed every 10 minutes)

About weather observations | Map of weather stations | Latest weather observations for NT | Other Formats
Station Details ID: 014909 Name: CENTRAL ARNHEM PLATEAU Lat: -13.33 Lon: 133.09 Height: 416.0 m
Data from the previous 72 hours. | See also: Recent months for locations in Northern Territory
Date/Time
CST
Temp
°C
App
Temp
°C
Dew
Point
Rel
Hum
%
Delta-T
°C
Wind Press
QNH
hPa
Press
MSL
hPa
Rain
since 9 am
mm
Dir
 
Spd
km/h
Gust
km/h
Spd
kts
Gust
kts
01/04:30pm 30.3 31.2 18.4 49 7.8 NW 11 15 6 8 1007.7 1004.7 0.0
01/04:00pm 31.3 31.8 19.3 49 8.0 N 15 24 8 13 1007.7 1004.7 0.0
01/03:30pm 31.4 31.7 19.7 49 7.8 NNW 17 20 9 11 1008.0 1005.0 0.0
01/03:00pm 31.9 32.5 20.2 50 7.9 NW 17 24 9 13 1007.8 1004.8 0.0
01/02:30pm 32.6 34.7 20.2 48 8.4 W 9 15 5 8 1008.3 1005.3 0.0
01/02:00pm 31.9 33.4 19.8 48 8.1 SW 11 19 6 10 1008.7 1005.7 0.0
01/01:30pm 32.0 35.2 22.4 57 6.7 W 9 17 5 9 1009.2 1006.2 0.0
01/01:00pm 31.3 34.3 21.2 55 6.9 W 7 13 4 7 1009.7 1006.7 0.0
01/12:30pm 30.9 32.9 20.8 55 6.8 NW 11 19 6 10 1010.2 1007.2 0.0
01/12:00pm 29.9 32.1 21.8 62 5.5 W 13 19 7 10 1010.6 1007.6 0.0
01/11:30am 29.3 31.5 21.8 64 5.1 WNW 13 19 7 10 1010.8 1007.8 0.0
01/11:00am 28.9 31.1 21.9 66 4.8 W 13 20 7 11 1011.0 1008.0 0.0
01/10:30am 28.7 31.1 22.2 68 4.5 W 13 20 7 11 1011.4 1008.4 0.0
01/10:00am 27.5 29.7 21.8 71 3.9 W 13 19 7 10 1011.5 1008.5 0.0
01/09:30am 26.5 29.2 22.1 77 3.0 WNW 11 15 6 8 1011.5 1008.5 0.0
01/09:00am 25.0 27.0 21.5 81 2.4 WNW 13 17 7 9 1011.2 1008.2 0.0
01/08:30am 24.7 26.9 21.8 84 2.0 W 13 19 7 10 1011.2 1008.2 0.0
01/08:00am 24.6 26.5 22.1 86 1.7 W 15 20 8 11 1010.9 1007.9 0.0
01/07:30am 24.2 26.4 21.9 87 1.6 WNW 13 17 7 9 1010.7 1007.7 0.0
01/07:00am 24.0 26.5 21.7 87 1.5 WNW 11 15 6 8 1010.3 1007.3 0.0
01/06:30am 23.8 26.6 21.5 87 1.5 WNW 9 13 5 7 1009.9 1006.9 0.0
01/06:00am 24.0 26.8 21.5 86 1.7 W 9 13 5 7 1009.8 1006.8 0.0
01/05:30am 24.0 27.1 21.5 86 1.7 WNW 7 11 4 6 1009.5 1006.4 0.0
01/05:00am 24.0 27.1 21.5 86 1.7 WNW 7 11 4 6 1009.2 1006.1 0.0
01/04:30am 24.3 26.7 21.6 85 1.8 WNW 11 15 6 8 1009.3 1006.2 0.0
01/04:00am 24.4 27.1 21.3 83 2.1 WNW 9 13 5 7 1009.3 1006.2 0.0
01/03:30am 24.6 27.0 21.5 83 2.1 WNW 11 15 6 8 1009.3 1006.2 0.0
01/03:00am 24.9 27.3 21.6 82 2.2 WNW 11 15 6 8 1009.5 1006.4 0.0
01/02:30am 24.8 27.2 21.5 82 2.2 NW 11 15 6 8 1009.6 1006.6 0.0
01/02:00am 24.9 27.3 21.6 82 2.2 WNW 11 15 6 8 1009.8 1006.8 0.0
01/01:30am 24.8 27.9 21.5 82 2.2 NW 7 11 4 6 1009.9 1006.9 0.0
01/01:00am 24.9 27.6 21.4 81 2.4 WNW 9 13 5 7 1010.1 1007.1 0.0
01/12:30am 24.6 27.6 21.3 82 2.2 NW 7 9 4 5 1010.5 1007.5 0.0
01/12:00am 24.7 27.8 21.0 80 2.5 NW 6 9 3 5 1010.9 1007.9 0.0
 
Date/Time
CST
Temp
°C
App
Temp
°C
Dew
Point
Rel
Hum
%
Delta-T
°C
Wind Press
QNH
hPa
Press
MSL
hPa
Rain
since 9 am
mm
Dir
 
Spd
km/h
Gust
km/h
Spd
kts
Gust
kts
31/11:30pm 24.7 27.5 20.8 79 2.6 WNW 7 9 4 5 1011.2 1008.2 0.0
31/11:00pm 24.6 26.8 20.5 78 2.7 NW 9 13 5 7 1011.5 1008.4 0.0
31/10:30pm 24.5 26.4 20.6 79 2.6 NW 11 15 6 8 1011.4 1008.3 0.0
31/10:00pm 24.9 26.6 21.0 79 2.6 WNW 13 19 7 10 1011.1 1008.1 0.0
31/09:30pm 24.1 24.7 20.2 79 2.6 WSW 17 22 9 12 1011.0 1008.0 0.0
31/09:00pm 26.3 29.2 21.1 73 3.5 NW 7 11 4 6 1010.6 1007.6 0.0
31/08:30pm 26.2 28.5 20.7 71 3.7 NNE 9 11 5 6 1010.3 1007.3 0.0
31/08:00pm 26.4 28.3 20.5 70 3.9 N 11 15 6 8 1009.9 1006.9 0.0
31/07:30pm 27.0 29.0 20.8 69 4.2 N 11 17 6 9 1009.8 1006.8 0.0
31/07:00pm 27.9 27.9 19.7 61 5.4 NW 19 28 10 15 1009.3 1006.2 0.0
31/06:30pm 28.3 28.6 20.3 62 5.4 NW 19 26 10 14 1008.2 1005.2 0.0
31/06:00pm 30.3 30.6 18.7 50 7.6 WNW 15 20 8 11 1007.7 1004.7 0.0
31/05:30pm 31.2 32.0 19.9 51 7.6 WNW 15 20 8 11 1007.5 1004.5 0.0
31/05:00pm 31.1 33.1 19.1 48 7.9 WSW 7 13 4 7 1007.5 1004.5 0.0
31/04:30pm 32.8 34.8 20.0 47 8.6 WSW 9 17 5 9 1007.3 1004.2 0.0
31/04:00pm 31.5 33.0 18.8 46 8.4 W 9 13 5 7 1007.5 1004.5 0.0
31/03:30pm 31.9 33.4 19.8 48 8.1 WNW 11 17 6 9 1007.7 1004.7 0.0
31/03:00pm 30.8 31.7 18.5 47 8.1 WNW 11 19 6 10 1008.2 1005.2 0.0
31/02:30pm 31.4 33.0 20.7 53 7.3 WNW 13 32 7 17 1008.5 1005.5 0.0
31/02:00pm 30.7 31.9 20.6 54 6.8 WSW 15 22 8 12 1009.0 1005.9 0.0
31/01:30pm 30.1 31.4 20.1 55 6.7 W 13 20 7 11 1009.5 1006.4 0.0
31/01:00pm 29.9 31.2 21.6 61 5.7 W 17 24 9 13 1009.9 1006.9 0.0
31/12:30pm 29.6 30.0 20.7 58 6.0 WNW 19 26 10 14 1010.4 1007.4 0.0
31/12:00pm 28.9 29.3 20.9 62 5.4 W 20 28 11 15 1010.5 1007.5 0.0
31/11:30am 28.3 28.9 21.3 65 4.7 W 20 30 11 16 1011.0 1008.0 0.0
31/11:00am 27.7 28.0 21.5 69 4.2 W 22 32 12 17 1011.2 1008.2 0.0
31/10:30am 27.0 27.2 21.3 71 3.8 WNW 22 32 12 17 1011.4 1008.3 0.0
31/10:00am 27.0 27.6 21.3 71 3.8 W 20 32 11 17 1011.4 1008.3 0.0
31/09:30am 26.6 27.4 21.4 73 3.5 WNW 19 26 10 14 1011.2 1008.2 0.0
31/09:00am 25.2 26.2 21.1 78 2.7 WNW 17 22 9 12 1011.0 1008.0 -
31/08:30am 24.8 26.2 21.1 80 2.5 WNW 15 20 8 11 1010.9 1007.9 -
31/08:00am 24.3 25.7 21.0 82 2.2 WNW 15 20 8 11 1010.6 1007.6 2.2
31/07:30am 24.0 25.8 21.1 84 1.9 WNW 13 17 7 9 1010.4 1007.4 2.2
31/07:00am 23.5 25.1 20.8 85 1.8 WNW 13 20 7 11 1010.1 1007.1 2.2
31/06:30am 23.3 25.2 20.6 85 1.8 WNW 11 15 6 8 1009.8 1006.8 2.2
31/06:00am 23.5 24.8 20.8 85 1.8 NW 15 20 8 11 1009.6 1006.6 2.2
31/05:30am 23.5 25.1 20.8 85 1.8 NW 13 17 7 9 1009.5 1006.4 2.2
31/05:00am 23.5 25.2 21.0 86 1.7 WNW 13 17 7 9 1009.2 1006.1 2.2
31/04:30am 23.3 25.4 21.0 87 1.5 WNW 11 15 6 8 1009.1 1006.0 2.2
31/04:00am 23.2 25.3 20.9 87 1.5 NW 11 15 6 8 1009.4 1006.3 2.2
31/03:30am 23.0 25.2 20.5 86 1.7 WNW 9 11 5 6 1009.5 1006.4 2.2
31/03:00am 23.0 25.2 20.3 85 1.8 WNW 9 13 5 7 1009.6 1006.6 2.2
31/02:30am 23.1 25.2 20.2 84 1.9 WNW 9 11 5 6 1009.8 1006.8 2.2
31/02:00am 22.9 24.6 20.2 85 1.8 WNW 11 15 6 8 1010.2 1007.2 2.2
31/01:30am 22.5 24.5 20.0 86 1.6 NW 9 13 5 7 1010.5 1007.5 2.2
31/01:00am 22.5 25.5 20.0 86 1.6 NNW 4 7 2 4 1010.8 1007.8 2.2
31/12:30am 22.6 26.3 19.9 85 1.8 CALM 0 0 0 0 1011.4 1008.3 2.2
31/12:00am 22.4 24.3 19.8 85 1.7 SE 9 15 5 8 1012.2 1009.2 2.2
 
Date/Time
CST
Temp
°C
App
Temp
°C
Dew
Point
Rel
Hum
%
Delta-T
°C
Wind Press
QNH
hPa
Press
MSL
hPa
Rain
since 9 am
mm
Dir
 
Spd
km/h
Gust
km/h
Spd
kts
Gust
kts
30/11:30pm 22.3 25.1 19.7 85 1.7 NNW 4 7 2 4 1012.3 1009.3 2.2
30/11:00pm 22.4 23.6 19.8 85 1.7 W 13 17 7 9 1012.4 1009.4 2.2
30/10:30pm 23.4 23.7 20.5 84 1.9 WNW 19 24 10 13 1012.3 1009.3 2.2
30/10:00pm 23.8 25.6 20.3 81 2.3 NNW 11 17 6 9 1012.1 1009.1 2.0
30/09:30pm 23.5 25.1 20.0 81 2.3 N 11 13 6 7 1012.1 1009.1 2.0
30/09:00pm 23.8 24.3 20.1 80 2.4 N 17 26 9 14 1012.0 1009.0 2.0
30/08:30pm 24.0 25.2 19.9 78 2.7 N 13 19 7 10 1011.4 1008.3 2.0
30/08:00pm 24.4 25.7 20.9 81 2.3 N 15 20 8 11 1010.9 1007.9 2.0
30/07:30pm 24.5 28.7 21.0 81 2.3 CALM 0 0 0 0 1010.1 1007.1 2.0
30/07:00pm 24.7 28.1 21.0 80 2.5 ESE 4 7 2 4 1010.0 1007.0 2.0
30/06:30pm 24.6 27.4 20.9 80 2.5 SE 7 7 4 4 1009.2 1006.1 2.0
30/06:00pm 24.4 27.8 20.9 81 2.3 NNW 4 9 2 5 1008.7 1005.7 2.0
30/05:30pm 23.7 25.4 20.2 81 2.3 N 11 13 6 7 1008.4 1005.4 2.0
30/05:00pm 22.7 23.9 20.0 85 1.8 N 13 15 7 8 1008.6 1005.6 2.0
30/04:30pm 24.2 22.5 19.9 77 2.8 NW 28 43 15 23 1008.9 1005.8 0.0
30/04:24pm 25.3 25.1 19.4 70 3.9 NNW 19 43 10 23 1008.2 1005.2 0.0
30/04:00pm 27.2 29.1 19.8 64 4.9 ENE 9 13 5 7 1007.5 1004.5 0.0
30/03:30pm 27.1 29.3 20.4 66 4.5 SSE 9 13 5 7 1007.9 1004.9 0.0
30/03:00pm 27.5 28.5 20.3 65 4.8 SSW 15 20 8 11 1008.0 1005.0 0.0
30/02:30pm 29.5 30.3 19.8 56 6.5 WSW 15 24 8 13 1008.1 1005.1 0.0
30/02:00pm 31.7 31.8 20.0 50 7.8 NW 19 28 10 15 1008.2 1005.2 0.0
30/01:30pm 30.4 30.1 19.1 50 7.5 NW 19 26 10 14 1008.6 1005.6 0.0
30/01:00pm 30.6 30.6 19.0 50 7.7 NNW 17 26 9 14 1009.3 1006.2 0.0
30/12:30pm 30.6 31.0 19.0 50 7.7 WNW 15 22 8 12 1009.9 1006.9 0.0
30/12:00pm 30.2 30.7 19.2 51 7.3 NW 15 20 8 11 1010.2 1007.2 0.0
30/11:30am 29.9 29.9 19.0 52 7.2 WNW 17 24 9 13 1010.7 1007.7 0.0
30/11:00am 29.0 30.2 19.9 58 6.1 NW 13 20 7 11 1010.6 1007.6 0.0
30/10:30am 28.4 30.5 20.1 60 5.5 WNW 9 13 5 7 1010.6 1007.6 0.0
30/10:00am 27.4 30.0 20.5 66 4.6 WSW 7 11 4 6 1010.5 1007.5 0.0
30/09:30am 27.5 30.2 21.3 69 4.2 WNW 9 15 5 8 1010.5 1007.5 0.0
30/09:00am 27.0 29.5 21.1 70 4.0 W 9 15 5 8 1010.5 1007.5 0.0
30/08:30am 26.7 28.8 21.0 71 3.8 W 11 15 6 8 1010.4 1007.4 0.0
30/08:00am 25.6 27.5 21.3 77 2.9 W 13 17 7 9 1010.5 1007.5 0.0
30/07:30am 24.9 26.4 21.2 80 2.5 W 15 20 8 11 1010.5 1007.5 0.0
30/07:00am 24.6 26.2 21.5 83 2.1 WNW 15 20 8 11 1010.2 1007.2 0.0
30/06:30am 24.6 26.7 21.7 84 2.0 W 13 17 7 9 1010.0 1007.0 0.0
30/06:00am 24.6 27.4 21.5 83 2.1 W 9 15 5 8 1009.7 1006.7 0.0
30/05:30am 24.7 27.5 21.6 83 2.1 WNW 9 13 5 7 1009.5 1006.4 0.0
30/05:00am 24.7 27.0 21.4 82 2.2 WNW 11 15 6 8 1009.2 1006.1 0.0
30/04:30am 25.0 26.6 21.5 81 2.4 WNW 15 20 8 11 1009.0 1005.9 0.0
30/04:00am 25.0 27.0 21.5 81 2.4 NW 13 17 7 9 1009.1 1006.0 0.0
30/03:30am 25.2 26.9 21.7 81 2.4 NW 15 22 8 12 1009.0 1005.9 0.0
30/03:00am 25.3 26.3 21.8 81 2.4 WNW 19 24 10 13 1009.2 1006.1 0.0
30/02:30am 25.4 27.6 21.9 81 2.4 WNW 13 20 7 11 1009.4 1006.3 0.0
30/02:00am 25.5 27.3 21.8 80 2.5 NW 15 20 8 11 1009.6 1006.6 0.0
30/01:30am 25.8 27.4 21.5 77 2.9 NW 15 22 8 12 1009.8 1006.8 0.0
30/01:00am 26.0 28.1 21.7 77 2.9 NW 13 20 7 11 1010.1 1007.1 0.0
30/12:30am 26.3 27.2 20.8 71 3.7 NW 17 26 9 14 1010.3 1007.3 0.0
30/12:00am 26.4 28.1 19.3 65 4.7 WNW 9 11 5 6 1010.5 1007.5 0.0
 
Date/Time
CST
Temp
°C
App
Temp
°C
Dew
Point
Rel
Hum
%
Delta-T
°C
Wind Press
QNH
hPa
Press
MSL
hPa
Rain
since 9 am
mm
Dir
 
Spd
km/h
Gust
km/h
Spd
kts
Gust
kts
29/11:30pm 26.7 28.8 19.3 64 4.9 WNW 7 11 4 6 1010.7 1007.7 0.0
29/11:00pm 26.9 29.0 19.0 62 5.2 NW 6 9 3 5 1010.7 1007.7 0.0
29/10:30pm 27.0 28.6 18.3 59 5.6 NW 7 11 4 6 1010.6 1007.6 0.0
29/10:00pm 26.8 30.0 18.9 62 5.1 CALM 0 0 0 0 1010.0 1007.0 0.0
29/09:30pm 27.9 31.1 18.9 58 5.9 CALM 0 0 0 0 1009.6 1006.6 0.0
29/09:00pm 27.6 31.0 19.4 61 5.4 CALM 0 0 0 0 1009.6 1006.6 0.0
29/08:30pm 28.3 31.2 18.1 54 6.6 CALM 0 0 0 0 1009.5 1006.4 0.0
29/08:00pm 28.2 30.9 17.7 53 6.8 CALM 0 0 0 0 1009.1 1006.0 0.0
29/07:30pm 27.9 30.1 17.4 52 6.7 WSW 2 6 1 3 1008.6 1005.6 0.0
29/07:00pm 27.8 28.2 17.3 52 6.7 SSW 11 13 6 7 1008.3 1005.3 0.0
29/06:30pm 27.3 26.7 17.5 55 6.3 SW 17 20 9 11 1008.1 1005.1 0.0
29/06:00pm 27.2 26.3 17.7 56 6.1 SSW 19 22 10 12 1007.8 1004.8 0.0
29/05:30pm 29.3 30.6 19.3 55 6.6 W 11 13 6 7 1007.3 1004.2 0.0
29/05:00pm 30.6 31.4 17.3 45 8.6 N 9 11 5 6 1006.8 1003.7 0.0

Other Formats:

Comma delimited format used in spreadsheet applications
http://www.bom.gov.au/fwo/IDD60801/IDD60801.94141.axf

JavaScript Object Notation format (JSON) in row-major order
http://www.bom.gov.au/fwo/IDD60801/IDD60801.94141.json